Time;durP1;ratioP1;P1;durP2;ratioP2;P2;SDS_P1;SDS_P2;PMS_P1;PMS_P2;Temp;Humidity;BMP_temperature;BMP_pressure;BME280_temperature;BME280_humidity;BME280_pressure;Samples;Min_cycle;Max_cycle;Signal;HPM_P1;HPM_P2
2022/10/29 00:01:46;;;;;;;20.17;4.25;;;;;;;17.48;71.28;102214.44;5030631;28;20036;-44
2022/10/29 00:04:12;;;;;;;17.90;4.15;;;;;;;17.45;71.60;102192.44;5031035;28;20104;-44
2022/10/29 00:06:37;;;;;;;22.83;4.30;;;;;;;17.45;71.48;102205.63;5030792;28;20075;-44
2022/10/29 00:09:03;;;;;;;18.90;3.80;;;;;;;17.45;71.42;102202.09;5030765;28;20103;-46
2022/10/29 00:11:28;;;;;;;25.55;4.82;;;;;;;17.31;71.95;102207.31;5030309;28;20504;-47
2022/10/29 00:13:59;;;;;;;20.27;4.07;;;;;;;17.40;71.60;102206.47;5030661;28;20033;-45
2022/10/29 00:16:27;;;;;;;18.73;4.18;;;;;;;17.42;71.46;102200.34;5030768;28;20025;-44
2022/10/29 00:18:53;;;;;;;20.75;4.13;;;;;;;17.40;71.39;102199.44;5030801;28;20029;-47
2022/10/29 00:21:21;;;;;;;20.65;3.58;;;;;;;17.36;71.28;102202.06;5030093;28;20053;-45
2022/10/29 00:23:47;;;;;;;19.13;3.75;;;;;;;17.32;71.75;102202.91;5030670;28;20476;-43
2022/10/29 00:26:13;;;;;;;18.77;3.80;;;;;;;17.29;71.80;102205.53;5030361;28;20033;-43
2022/10/29 00:28:39;;;;;;;21.30;4.20;;;;;;;17.28;71.94;102199.38;5030572;28;20030;-44
2022/10/29 00:31:07;;;;;;;19.33;3.65;;;;;;;17.31;71.82;102206.41;5030313;28;20065;-45
2022/10/29 00:33:33;;;;;;;19.45;3.53;;;;;;;17.35;71.95;102200.28;5030192;28;20025;-45
2022/10/29 00:36:09;;;;;;;17.85;3.90;;;;;;;17.36;71.86;102200.31;5030587;28;20029;-43
2022/10/29 00:38:35;;;;;;;24.40;4.03;;;;;;;17.35;71.78;102195.00;5031488;28;20032;-43
2022/10/29 00:41:02;;;;;;;17.63;3.47;;;;;;;17.38;71.49;102195.06;5046125;28;20029;-43
2022/10/29 00:43:27;;;;;;;20.80;3.95;;;;;;;17.30;72.07;102200.25;5031045;28;20401;-43
2022/10/29 00:45:56;;;;;;;22.52;4.30;;;;;;;17.34;71.64;102193.25;5031288;28;20048;-42
2022/10/29 00:48:23;;;;;;;19.58;3.92;;;;;;;17.32;71.51;102180.03;5030449;28;20026;-44
2022/10/29 00:50:50;;;;;;;18.38;4.05;;;;;;;17.32;71.47;102176.56;5029955;28;20433;-45
2022/10/29 00:53:21;;;;;;;29.58;4.50;;;;;;;17.27;71.59;102184.41;5030088;28;20036;-50
2022/10/29 00:55:46;;;;;;;15.65;3.78;;;;;;;17.27;71.70;102178.25;5030356;28;20576;-44
2022/10/29 00:58:12;;;;;;;18.42;4.00;;;;;;;17.26;71.53;102185.28;5030347;28;20032;-44
2022/10/29 01:00:37;;;;;;;18.42;4.18;;;;;;;17.27;71.50;102183.53;5029786;28;20018;-41
2022/10/29 01:03:04;;;;;;;19.35;4.03;;;;;;;17.21;71.26;102184.38;5029879;28;20033;-46
2022/10/29 01:05:32;;;;;;;18.27;4.15;;;;;;;17.19;71.30;102180.88;5028018;28;20104;-46
2022/10/29 01:07:58;;;;;;;18.23;3.70;;;;;;;17.16;71.06;102172.91;5030525;28;20076;-44
2022/10/29 01:10:36;;;;;;;16.80;4.07;;;;;;;17.14;71.06;102164.09;5030232;28;20025;-43
2022/10/29 01:13:17;;;;;;;20.50;4.10;;;;;;;17.12;70.76;102149.19;5030543;28;20033;-43
2022/10/29 01:16:01;;;;;;;16.70;3.90;;;;;;;17.06;70.86;102147.38;5029996;28;20041;-46
2022/10/29 01:18:29;;;;;;;20.30;4.30;;;;;;;17.06;70.83;102139.47;5030036;28;20032;-43
2022/10/29 01:21:30;;;;;;;18.73;4.10;;;;;;;17.06;71.12;102136.84;5029518;28;20452;-47
2022/10/29 01:24:11;;;;;;;14.93;3.78;;;;;;;17.07;71.14;102130.72;5029752;28;20040;-41
2022/10/29 01:26:55;;;;;;;18.52;4.85;;;;;;;17.01;71.64;102142.09;5029915;28;20021;-45
2022/10/29 01:29:34;;;;;;;19.33;4.35;;;;;;;17.05;71.18;102164.06;5029954;28;20029;-43
2022/10/29 01:32:05;;;;;;;18.90;4.53;;;;;;;16.97;71.84;102161.38;5029688;28;20032;-45
2022/10/29 01:34:38;;;;;;;16.05;4.32;;;;;;;16.99;71.86;102172.81;5030178;28;20025;-42
2022/10/29 01:37:21;;;;;;;18.60;4.45;;;;;;;17.01;71.59;102162.28;5029878;28;20128;-43
2022/10/29 01:39:54;;;;;;;11.77;3.72;;;;;;;16.99;71.39;102153.47;5030339;28;20045;-44
2022/10/29 01:42:31;;;;;;;13.75;4.03;;;;;;;16.88;71.53;102145.50;5030317;28;20396;-44
2022/10/29 01:45:13;;;;;;;13.52;3.92;;;;;;;16.83;71.45;102143.72;5045485;28;20038;-47
2022/10/29 01:47:47;;;;;;;16.83;4.00;;;;;;;16.81;71.37;102140.16;5030731;28;20065;-42
2022/10/29 01:50:19;;;;;;;14.20;4.00;;;;;;;16.71;71.76;102128.66;5030363;28;20022;-46
2022/10/29 01:52:47;;;;;;;13.57;4.20;;;;;;;16.64;71.30;102132.13;5030595;28;20017;-40
2022/10/29 01:55:19;;;;;;;16.02;4.30;;;;;;;16.59;71.28;102131.16;5031013;28;20037;-45
2022/10/29 01:57:44;;;;;;;13.98;3.80;;;;;;;16.59;71.23;102124.19;5030278;28;20021;-46
2022/10/29 02:00:18;;;;;;;15.27;4.18;;;;;;;16.53;71.22;102118.81;5033553;28;20088;-44
2022/10/29 02:03:05;;;;;;;15.85;4.38;;;;;;;16.53;71.45;102121.47;5043732;28;20427;-48
2022/10/29 02:05:59;;;;;;;9.82;3.70;;;;;;;16.51;71.86;102125.84;5040567;28;20140;-44
2022/10/29 02:08:30;;;;;;;21.03;4.67;;;;;;;16.54;72.15;102124.97;5027095;28;20041;-45
2022/10/29 02:11:06;;;;;;;17.05;4.90;;;;;;;16.61;72.39;102129.47;5029310;28;20267;-42
2022/10/29 02:13:35;;;;;;;26.33;5.13;;;;;;;16.67;72.41;102126.00;5029498;28;20029;-44
2022/10/29 02:16:05;;;;;;;18.15;5.45;;;;;;;16.72;73.09;102130.44;5029458;28;20029;-45
2022/10/29 02:18:39;;;;;;;24.23;5.57;;;;;;;16.81;73.24;102127.00;5048016;28;20021;-44
2022/10/29 02:21:04;;;;;;;24.85;6.00;;;;;;;16.88;73.32;102110.38;5032959;28;20130;-43
2022/10/29 02:23:30;;;;;;;21.35;6.05;;;;;;;16.88;73.06;102118.28;5032664;28;20029;-43
2022/10/29 02:25:55;;;;;;;20.17;5.78;;;;;;;16.81;72.71;102117.34;5033047;28;20027;-45
2022/10/29 02:28:20;;;;;;;20.85;5.97;;;;;;;16.84;72.69;102113.84;5032959;28;20037;-47
2022/10/29 02:30:45;;;;;;;19.90;5.40;;;;;;;16.85;72.67;102099.81;5032551;28;20485;-43
2022/10/29 02:33:11;;;;;;;16.50;5.53;;;;;;;16.85;72.33;102092.78;5032618;28;20159;-44
2022/10/29 02:35:36;;;;;;;20.05;5.72;;;;;;;16.83;72.46;102098.94;5032995;28;20484;-45
2022/10/29 02:38:01;;;;;;;22.65;5.97;;;;;;;16.82;72.73;102108.59;5033121;28;20041;-43
2022/10/29 02:40:27;;;;;;;20.27;5.68;;;;;;;16.84;72.52;102108.56;5032646;28;20436;-43
2022/10/29 02:42:52;;;;;;;20.52;6.00;;;;;;;16.87;72.47;102093.69;5032422;28;20030;-43
2022/10/29 02:45:17;;;;;;;21.50;6.10;;;;;;;16.92;72.20;102091.06;5032285;28;20025;-46
2022/10/29 02:47:42;;;;;;;20.38;5.80;;;;;;;16.89;72.09;102097.22;5032284;28;20030;-43
2022/10/29 02:50:08;;;;;;;23.67;6.03;;;;;;;16.87;72.42;102085.78;5032262;28;20024;-44
2022/10/29 02:52:33;;;;;;;19.33;5.75;;;;;;;16.87;72.09;102080.53;5032204;28;20021;-44
2022/10/29 02:54:59;;;;;;;17.52;6.60;;;;;;;16.63;72.54;102081.22;5032364;28;20424;-43
2022/10/29 02:57:24;;;;;;;16.00;6.05;;;;;;;16.70;72.19;102087.41;5032161;28;20072;-47
2022/10/29 02:59:49;;;;;;;20.85;5.78;;;;;;;16.68;71.94;102088.28;5032136;28;20021;-43
2022/10/29 03:02:14;;;;;;;16.85;5.78;;;;;;;16.66;72.19;102088.25;5054530;22;20500;-40
2022/10/29 03:04:40;;;;;;;21.35;6.00;;;;;;;16.63;72.29;102089.13;5011096;28;20105;-44
2022/10/29 03:07:05;;;;;;;20.63;5.63;;;;;;;16.63;72.65;102083.84;5012391;28;20394;-45
2022/10/29 03:09:31;;;;;;;18.73;6.05;;;;;;;16.71;72.12;102098.84;5012527;28;20485;-44
2022/10/29 03:11:56;;;;;;;18.77;5.45;;;;;;;16.79;72.11;102100.66;5012011;28;20402;-45
2022/10/29 03:14:21;;;;;;;21.65;6.20;;;;;;;16.82;72.00;102105.94;5012294;28;20029;-43
2022/10/29 03:16:46;;;;;;;20.23;5.85;;;;;;;16.75;72.67;102098.88;5012077;28;20022;-44
2022/10/29 03:19:12;;;;;;;19.90;6.47;;;;;;;16.89;72.37;102089.31;5012173;28;20026;-49
2022/10/29 03:21:37;;;;;;;19.45;6.10;;;;;;;16.96;72.46;102088.47;5012262;28;20029;-44
2022/10/29 03:24:03;;;;;;;14.75;5.38;;;;;;;17.06;71.91;102086.78;5012258;28;20026;-42
2022/10/29 03:26:29;;;;;;;16.33;5.60;;;;;;;17.12;72.00;102083.31;5012098;28;20028;-43
2022/10/29 03:28:54;;;;;;;16.90;5.68;;;;;;;17.12;72.06;102073.66;5012270;28;20030;-45
2022/10/29 03:31:20;;;;;;;16.70;5.65;;;;;;;17.14;72.43;102068.41;5012817;28;20406;-46
2022/10/29 03:33:45;;;;;;;17.45;5.60;;;;;;;17.20;72.21;102065.78;5012778;28;20029;-43
2022/10/29 03:36:10;;;;;;;17.95;6.05;;;;;;;17.19;72.31;102064.91;5011521;28;20022;-43
2022/10/29 03:38:35;;;;;;;16.17;5.50;;;;;;;17.19;72.41;102066.66;5011990;28;20478;-44
2022/10/29 03:41:01;;;;;;;17.83;5.47;;;;;;;17.18;72.38;102065.78;5011623;28;20072;-50
2022/10/29 03:43:26;;;;;;;13.63;5.03;;;;;;;17.24;72.01;102071.06;5011632;28;20021;-46
2022/10/29 03:45:56;;;;;;;17.35;5.60;;;;;;;17.26;71.73;102063.19;5011783;28;20088;-45
2022/10/29 03:48:23;;;;;;;16.55;5.65;;;;;;;17.22;71.85;102054.38;5011424;28;20042;-48
2022/10/29 03:51:04;;;;;;;12.20;4.85;;;;;;;17.23;71.86;102063.16;5011501;28;20021;-46
2022/10/29 03:53:31;;;;;;;18.23;5.40;;;;;;;17.19;72.05;102053.47;5011962;28;20036;-49
2022/10/29 03:55:56;;;;;;;16.45;5.30;;;;;;;17.17;72.23;102042.94;5010795;28;20026;-48
2022/10/29 03:58:22;;;;;;;12.65;5.10;;;;;;;17.21;72.22;102049.97;5012153;28;20049;-48
2022/10/29 04:00:59;;;;;;;17.55;5.25;;;;;;;17.22;72.30;102056.13;5011198;28;20053;-50
2022/10/29 04:03:25;;;;;;;14.65;5.30;;;;;;;17.09;72.70;102055.16;5012422;28;20042;-47
2022/10/29 04:05:51;;;;;;;15.75;5.35;;;;;;;17.10;72.83;102056.94;5012774;28;20393;-47
2022/10/29 04:08:16;;;;;;;13.82;5.22;;;;;;;17.14;73.00;102055.22;5011205;28;20026;-43
2022/10/29 04:10:51;;;;;;;15.60;5.68;;;;;;;17.16;72.99;102056.09;5010930;28;20048;-45
2022/10/29 04:13:18;;;;;;;14.57;5.70;;;;;;;17.12;72.71;102068.38;5011414;28;20030;-48
2022/10/29 04:15:44;;;;;;;16.08;6.18;;;;;;;17.11;72.95;102063.09;5011291;28;20026;-45
2022/10/29 04:18:10;;;;;;;16.60;5.80;;;;;;;17.16;72.99;102062.25;5010904;28;20100;-46
2022/10/29 04:20:36;;;;;;;17.15;5.60;;;;;;;17.19;72.65;102056.13;5010823;28;20053;-48
2022/10/29 04:23:03;;;;;;;17.38;6.05;;;;;;;17.24;72.59;102064.94;5010701;28;20047;-42
2022/10/29 04:25:28;;;;;;;16.27;5.53;;;;;;;17.21;72.80;102049.09;5010902;28;20341;-49
2022/10/29 04:27:54;;;;;;;16.55;6.22;;;;;;;17.19;72.98;102042.94;5010734;28;20036;-46
2022/10/29 04:30:21;;;;;;;18.35;6.43;;;;;;;16.97;73.37;102047.19;5010524;28;20580;-51
2022/10/29 04:32:46;;;;;;;17.95;6.90;;;;;;;17.23;72.54;102039.44;5010951;28;20230;-45
2022/10/29 04:35:11;;;;;;;14.00;6.30;;;;;;;17.39;71.64;102039.50;5015897;28;20029;-45
2022/10/29 04:37:37;;;;;;;17.20;7.10;;;;;;;17.17;72.20;102045.56;5015294;28;20097;-45
2022/10/29 04:40:02;;;;;;;15.52;6.88;;;;;;;17.26;71.97;102042.94;5009763;28;20100;-48
2022/10/29 04:42:28;;;;;;;16.50;6.72;;;;;;;17.23;71.88;102037.69;5013512;28;20041;-45
2022/10/29 04:44:53;;;;;;;17.40;6.75;;;;;;;17.39;71.46;102039.50;5017051;28;20025;-45
2022/10/29 04:47:18;;;;;;;16.10;6.93;;;;;;;17.51;70.86;102029.88;5019201;28;20089;-46
2022/10/29 04:49:43;;;;;;;17.00;6.93;;;;;;;17.60;70.34;102032.53;5025693;28;20033;-48
2022/10/29 04:52:09;;;;;;;13.93;6.65;;;;;;;17.50;70.47;102034.28;5021845;28;20026;-49
2022/10/29 04:54:34;;;;;;;14.07;6.68;;;;;;;17.55;70.48;102039.56;5010986;28;20040;-44
2022/10/29 04:56:59;;;;;;;17.85;6.93;;;;;;;17.42;70.62;102034.25;5010756;28;20018;-45
2022/10/29 04:59:25;;;;;;;13.23;6.30;;;;;;;17.50;70.51;102036.03;5010572;28;20117;-42
2022/10/29 05:01:50;;;;;;;12.77;6.50;;;;;;;17.50;70.45;102039.56;5010290;28;20030;-45
2022/10/29 05:04:15;;;;;;;14.85;6.47;;;;;;;17.19;71.56;102032.41;5010216;28;20100;-46
2022/10/29 05:06:40;;;;;;;16.13;6.50;;;;;;;17.19;71.59;102035.91;5010235;28;20072;-42
2022/10/29 05:09:06;;;;;;;13.60;6.45;;;;;;;17.26;70.86;102035.03;5010416;28;20017;-50
2022/10/29 05:11:31;;;;;;;13.65;6.07;;;;;;;17.22;71.47;102033.28;5009941;28;20108;-43
2022/10/29 05:13:56;;;;;;;11.23;6.20;;;;;;;17.11;71.62;102023.56;5010524;28;20031;-44
2022/10/29 05:16:21;;;;;;;12.25;6.03;;;;;;;17.28;71.07;102014.84;5011880;28;20417;-42
2022/10/29 05:18:47;;;;;;;14.45;5.60;;;;;;;17.30;70.71;102007.84;5014396;28;20029;-47
2022/10/29 05:21:12;;;;;;;11.45;5.63;;;;;;;17.39;70.66;102013.13;5014795;28;20022;-44
2022/10/29 05:23:37;;;;;;;13.82;6.30;;;;;;;17.44;70.45;102006.13;5014772;28;20021;-47
2022/10/29 05:26:03;;;;;;;10.45;5.80;;;;;;;17.50;70.46;102004.41;5014271;28;20442;-48
2022/10/29 05:28:28;;;;;;;12.75;6.53;;;;;;;17.45;70.65;101994.69;5014107;28;20026;-43
2022/10/29 05:30:53;;;;;;;14.10;6.50;;;;;;;17.49;70.70;101992.97;5015121;28;20352;-47
2022/10/29 05:33:23;;;;;;;16.55;6.50;;;;;;;17.58;70.31;101990.34;5013109;28;20118;-44
2022/10/29 05:35:49;;;;;;;12.65;6.60;;;;;;;17.53;70.41;101994.72;5010958;28;20449;-46
2022/10/29 05:38:15;;;;;;;9.50;6.00;;;;;;;17.47;70.86;101997.34;5010618;28;20475;-43
2022/10/29 05:40:44;;;;;;;11.38;5.90;;;;;;;17.38;71.16;102000.81;5008832;28;20091;-46
2022/10/29 05:43:11;;;;;;;10.88;6.40;;;;;;;17.35;71.11;102003.47;5010648;28;20022;-43
2022/10/29 05:45:36;;;;;;;14.55;6.88;;;;;;;17.15;71.48;101996.34;5011789;28;20494;-49
2022/10/29 05:48:03;;;;;;;14.10;6.93;;;;;;;17.12;71.48;102012.16;5011387;28;20037;-44
2022/10/29 05:50:30;;;;;;;12.30;7.35;;;;;;;17.12;71.46;102007.78;5009501;28;20080;-43
2022/10/29 05:52:57;;;;;;;16.45;7.50;;;;;;;17.33;70.93;101999.94;5013999;28;20081;-44
2022/10/29 05:55:23;;;;;;;18.05;7.55;;;;;;;17.40;70.49;101993.81;5018325;28;20475;-48
2022/10/29 05:57:48;;;;;;;14.60;7.50;;;;;;;17.52;69.92;102000.88;5018456;28;20076;-47
2022/10/29 06:00:14;;;;;;;12.85;6.97;;;;;;;17.61;69.66;102005.34;5018928;28;20025;-45
2022/10/29 06:02:43;;;;;;;14.15;7.50;;;;;;;17.68;69.26;101996.56;5018620;28;20540;-46
2022/10/29 06:05:08;;;;;;;14.13;6.55;;;;;;;17.63;69.19;101999.19;5018982;28;20030;-47
2022/10/29 06:07:33;;;;;;;11.75;6.70;;;;;;;17.61;69.31;102000.94;5017565;28;20107;-46
2022/10/29 06:09:59;;;;;;;13.75;7.65;;;;;;;17.69;69.02;101986.00;5018418;28;20034;-45
2022/10/29 06:12:24;;;;;;;15.20;7.50;;;;;;;17.52;69.46;101987.69;5017430;28;20034;-43
2022/10/29 06:14:49;;;;;;;16.02;7.93;;;;;;;17.31;70.51;101972.72;5017391;28;20386;-47
2022/10/29 06:17:14;;;;;;;13.75;7.70;;;;;;;17.65;69.32;101978.97;5014114;28;20068;-47
2022/10/29 06:19:40;;;;;;;15.38;8.25;;;;;;;17.40;70.23;101980.63;5014878;28;20029;-46
2022/10/29 06:22:05;;;;;;;15.63;8.00;;;;;;;17.59;70.16;101975.41;5012931;28;20026;-44
2022/10/29 06:24:30;;;;;;;14.00;8.18;;;;;;;17.65;69.54;101980.72;5013130;28;20153;-45
2022/10/29 06:26:56;;;;;;;16.20;8.40;;;;;;;17.77;69.05;101970.19;5012654;28;20064;-44
2022/10/29 06:29:21;;;;;;;19.63;9.20;;;;;;;17.79;69.26;101969.34;5012945;28;20500;-45
2022/10/29 06:31:46;;;;;;;16.95;8.43;;;;;;;17.84;69.19;101971.97;5013107;28;20022;-51
2022/10/29 06:34:13;;;;;;;15.63;8.43;;;;;;;17.83;69.28;101957.00;5012852;28;20445;-47
2022/10/29 06:36:38;;;;;;;14.25;8.52;;;;;;;17.90;69.28;101960.53;5012935;28;20654;-45
2022/10/29 06:39:04;;;;;;;14.90;9.27;;;;;;;17.94;69.11;101965.81;5012661;28;20292;-43
2022/10/29 06:41:29;;;;;;;15.85;9.48;;;;;;;17.99;68.94;101971.09;5012374;28;20029;-47
2022/10/29 06:43:54;;;;;;;19.42;9.73;;;;;;;17.95;69.16;101971.97;5012634;28;20033;-46
2022/10/29 06:46:20;;;;;;;18.75;9.88;;;;;;;17.96;69.30;101977.25;5013265;28;20026;-43
2022/10/29 06:48:45;;;;;;;17.13;9.68;;;;;;;17.96;69.44;101974.63;5014008;28;20076;-46
2022/10/29 06:51:10;;;;;;;16.80;9.80;;;;;;;17.99;69.42;101974.59;5013078;28;20374;-44
2022/10/29 06:53:36;;;;;;;17.55;9.80;;;;;;;17.99;69.39;101961.41;5012326;28;20030;-44
2022/10/29 06:56:01;;;;;;;18.52;9.75;;;;;;;18.08;69.37;101963.19;5012321;28;20076;-43
2022/10/29 06:58:26;;;;;;;21.95;10.07;;;;;;;18.00;69.88;101962.28;5012979;28;20056;-43
2022/10/29 07:00:52;;;;;;;15.43;9.18;;;;;;;18.04;69.91;101956.16;5013305;28;20037;-45
2022/10/29 07:03:19;;;;;;;17.90;9.57;;;;;;;18.17;69.69;101953.50;5011285;28;20525;-45
2022/10/29 07:05:45;;;;;;;17.90;9.48;;;;;;;18.18;69.79;101952.59;5011275;28;20103;-45
2022/10/29 07:08:11;;;;;;;20.00;9.38;;;;;;;18.29;69.68;101951.75;5012581;28;20065;-51
2022/10/29 07:10:36;;;;;;;19.48;9.98;;;;;;;18.30;69.36;101941.16;5012054;28;20091;-48
2022/10/29 07:13:01;;;;;;;18.73;9.80;;;;;;;18.37;69.76;101936.75;5012140;28;20108;-42
2022/10/29 07:15:27;;;;;;;20.17;10.55;;;;;;;18.24;70.51;101954.34;5011992;28;20057;-46
2022/10/29 07:18:01;;;;;;;19.88;10.20;;;;;;;18.43;69.79;101958.75;5012191;28;20024;-44
2022/10/29 07:20:28;;;;;;;19.52;10.43;;;;;;;18.43;70.11;101965.78;5011864;28;20592;-44
2022/10/29 07:22:53;;;;;;;19.20;10.38;;;;;;;18.39;70.32;101967.56;5012238;28;20092;-46
2022/10/29 07:25:19;;;;;;;19.77;10.35;;;;;;;18.61;69.50;101964.00;5012282;28;20026;-45
2022/10/29 07:27:44;;;;;;;19.20;10.35;;;;;;;18.71;69.20;101969.28;5011949;28;20026;-44
2022/10/29 07:30:10;;;;;;;19.17;10.32;;;;;;;18.51;69.88;101964.00;5011780;28;20112;-43
2022/10/29 07:32:35;;;;;;;18.35;10.30;;;;;;;18.15;71.27;101955.25;5011598;28;20036;-44
2022/10/29 07:35:01;;;;;;;19.98;10.52;;;;;;;18.49;70.12;101955.19;5011621;28;20105;-43
2022/10/29 07:37:26;;;;;;;17.95;10.50;;;;;;;18.69;69.47;101947.28;5012137;28;20398;-44
2022/10/29 07:39:51;;;;;;;19.65;10.48;;;;;;;18.58;69.88;101935.00;5012540;28;20088;-44
2022/10/29 07:42:17;;;;;;;18.67;10.82;;;;;;;18.58;69.90;101928.81;5013586;28;20032;-43
2022/10/29 07:44:43;;;;;;;17.95;10.32;;;;;;;18.74;69.43;101932.28;5015927;28;20026;-43
2022/10/29 07:47:08;;;;;;;17.45;10.10;;;;;;;18.77;69.57;101933.16;5016115;28;20083;-43
2022/10/29 07:49:33;;;;;;;16.40;10.40;;;;;;;18.82;69.65;101927.88;5013972;28;20022;-47
2022/10/29 07:51:59;;;;;;;20.63;10.55;;;;;;;19.00;69.42;101918.09;5012598;28;20057;-47
2022/10/29 07:54:24;;;;;;;20.05;10.23;;;;;;;19.26;68.49;101933.81;5012402;28;20099;-43
2022/10/29 07:56:52;;;;;;;18.00;10.20;;;;;;;19.41;68.33;101939.00;5011333;28;20033;-45
2022/10/29 07:59:18;;;;;;;21.38;10.50;;;;;;;19.52;67.73;101944.25;5011799;28;20467;-44
2022/10/29 08:01:43;;;;;;;17.73;9.88;;;;;;;19.57;67.53;101947.78;5011297;28;20041;-46
2022/10/29 08:04:09;;;;;;;18.70;10.10;;;;;;;19.70;67.22;101941.47;5011129;28;20037;-43
2022/10/29 08:06:34;;;;;;;22.77;10.48;;;;;;;19.69;67.29;101949.47;5010892;28;20032;-43
2022/10/29 08:08:59;;;;;;;21.25;10.18;;;;;;;19.44;68.03;101944.28;5011093;28;20033;-49
2022/10/29 08:11:25;;;;;;;22.52;10.48;;;;;;;19.51;67.86;101939.88;5010848;28;20038;-51
2022/10/29 08:13:50;;;;;;;18.98;10.30;;;;;;;19.63;67.47;101933.63;5010888;28;20517;-44
2022/10/29 08:16:15;;;;;;;22.13;10.88;;;;;;;19.64;67.13;101924.81;5010751;28;20149;-45
2022/10/29 08:18:41;;;;;;;18.75;10.75;;;;;;;19.60;67.31;101934.50;5011198;28;20025;-43
2022/10/29 08:21:06;;;;;;;20.50;11.40;;;;;;;19.47;68.05;101932.84;5012443;28;20033;-43
2022/10/29 08:23:31;;;;;;;20.50;11.02;;;;;;;19.58;67.74;101940.72;5013676;28;20124;-48
2022/10/29 08:25:57;;;;;;;22.77;11.07;;;;;;;19.47;68.36;101939.88;5012037;28;20104;-44
2022/10/29 08:28:23;;;;;;;22.33;11.55;;;;;;;19.56;68.64;101937.19;5011374;28;20080;-44
2022/10/29 08:30:49;;;;;;;21.42;11.70;;;;;;;19.33;69.50;101946.09;5013872;28;20104;-45
2022/10/29 08:33:14;;;;;;;24.52;11.45;;;;;;;19.79;67.90;101948.50;5012467;28;20033;-43
2022/10/29 08:35:40;;;;;;;20.48;10.68;;;;;;;19.90;67.61;101938.69;5010786;28;20029;-41
2022/10/29 08:38:05;;;;;;;20.77;11.57;;;;;;;20.05;67.18;101940.34;5010687;28;20018;-49
2022/10/29 08:40:47;;;;;;;23.30;11.65;;;;;;;20.10;67.38;101936.75;5010786;28;20148;-46
2022/10/29 08:43:46;;;;;;;17.83;11.07;;;;;;;20.17;67.15;101935.81;5012470;28;20018;-43
2022/10/29 08:46:56;;;;;;;20.85;11.50;;;;;;;20.32;66.50;101932.16;5011283;28;20038;-47
2022/10/29 08:49:38;;;;;;;19.63;11.25;;;;;;;20.05;67.08;101927.13;4999801;28;20604;-43
2022/10/29 08:52:15;;;;;;;21.10;11.20;;;;;;;20.30;66.48;101911.88;5010316;28;20052;-44
2022/10/29 08:54:43;;;;;;;19.40;11.30;;;;;;;20.36;66.57;101909.19;5010527;28;20025;-43
2022/10/29 08:57:17;;;;;;;21.73;11.38;;;;;;;20.31;66.69;101910.97;5011045;28;20030;-43
2022/10/29 09:00:03;;;;;;;19.60;11.27;;;;;;;20.50;66.25;101915.19;5010832;28;20033;-43
2022/10/29 09:05:16;;;;;;;23.95;11.23;;;;;;;20.55;66.20;101894.84;5011810;28;20054;-41
2022/10/29 09:08:08;;;;;;;21.63;11.52;;;;;;;20.23;67.45;101900.47;5014446;28;20108;-41
2022/10/29 09:10:36;;;;;;;20.80;11.20;;;;;;;20.47;66.64;101902.00;5013612;28;20026;-43
2022/10/29 09:13:26;;;;;;;22.50;11.48;;;;;;;20.52;66.50;101895.75;5011794;28;20502;-41
2022/10/29 09:16:00;;;;;;;19.20;11.15;;;;;;;20.45;66.61;101888.78;5010889;28;20030;-45
2022/10/29 09:18:37;;;;;;;21.20;11.32;;;;;;;20.30;67.09;101891.56;5011336;28;20532;-44
2022/10/29 09:21:24;;;;;;;18.65;10.90;;;;;;;20.62;65.89;101894.75;5010168;28;20030;-43
2022/10/29 09:24:20;;;;;;;20.58;11.10;;;;;;;20.31;67.25;101881.84;5010089;28;20026;-41
2022/10/29 09:26:58;;;;;;;21.15;11.05;;;;;;;20.43;66.93;101865.84;5011570;28;20034;-40
2022/10/29 09:29:57;;;;;;;20.38;10.68;;;;;;;20.42;67.11;101857.03;5014140;28;20067;-39
2022/10/29 09:32:49;;;;;;;20.20;10.63;;;;;;;20.77;66.09;101838.03;5013833;28;20040;-39
2022/10/29 09:35:17;;;;;;;18.83;10.10;;;;;;;20.71;66.26;101846.06;5014600;28;20030;-43
2022/10/29 09:37:45;;;;;;;20.08;11.02;;;;;;;20.63;66.21;101850.56;4996602;28;20021;-45
2022/10/29 09:40:28;;;;;;;23.42;10.40;;;;;;;20.44;67.28;101844.63;5013985;28;20504;-43
2022/10/29 09:42:54;;;;;;;18.42;10.77;;;;;;;20.74;66.26;101843.34;5014464;28;20022;-40
2022/10/29 09:45:27;;;;;;;19.67;10.93;;;;;;;20.54;66.53;101848.06;5014262;28;20033;-41
2022/10/29 09:48:17;;;;;;;21.23;10.77;;;;;;;20.81;65.96;101854.75;5014439;28;20029;-40
2022/10/29 09:50:53;;;;;;;22.17;11.05;;;;;;;20.71;66.33;101861.09;5013808;28;20022;-40
2022/10/29 09:53:18;;;;;;;17.90;10.38;;;;;;;20.81;66.37;101860.06;5013578;28;20050;-40
2022/10/29 09:55:52;;;;;;;19.85;11.07;;;;;;;20.45;67.35;101856.09;5014077;28;20110;-39
2022/10/29 09:58:23;;;;;;;20.38;10.65;;;;;;;20.53;67.48;101849.81;5013726;28;20505;-42
2022/10/29 10:00:51;;;;;;;17.50;9.15;;;;;;;20.68;67.17;101835.50;4995827;28;20022;-41
2022/10/29 10:03:23;;;;;;;22.02;9.50;;;;;;;21.00;66.24;101833.28;5013649;28;20486;-41
2022/10/29 10:05:59;;;;;;;19.45;9.60;;;;;;;21.31;65.20;101832.84;5015618;28;20076;-43
2022/10/29 10:08:24;;;;;;;22.23;10.05;;;;;;;20.69;66.97;101839.03;5015631;28;20026;-38
2022/10/29 10:11:06;;;;;;;18.30;9.32;;;;;;;21.42;64.85;101829.13;5016460;28;20029;-43
2022/10/29 10:13:34;;;;;;;17.10;9.60;;;;;;;20.91;66.18;101829.91;5015550;28;20088;-40
2022/10/29 10:16:02;;;;;;;20.55;9.05;;;;;;;21.39;64.92;101823.91;5017220;28;20103;-38
2022/10/29 10:18:30;;;;;;;15.93;9.20;;;;;;;21.38;64.56;101821.25;5017564;28;20385;-38
2022/10/29 10:21:20;;;;;;;18.65;9.23;;;;;;;21.64;63.82;101819.06;5017001;28;20033;-40
2022/10/29 10:23:50;;;;;;;16.08;8.45;;;;;;;21.73;63.77;101824.19;5017974;28;20058;-40
2022/10/29 10:26:29;;;;;;;19.15;9.00;;;;;;;21.38;64.13;101819.47;5017000;28;20430;-42
2022/10/29 10:29:10;;;;;;;18.77;8.80;;;;;;;21.69;63.67;101825.16;5016065;28;20610;-40
2022/10/29 10:31:36;;;;;;;22.77;8.80;;;;;;;21.76;63.56;101815.31;5016162;28;20025;-41
2022/10/29 10:34:23;;;;;;;19.83;8.73;;;;;;;21.53;63.73;101818.34;5015308;28;20076;-40
2022/10/29 10:37:01;;;;;;;23.20;9.23;;;;;;;21.73;63.48;101818.88;5015705;28;20501;-40
2022/10/29 10:39:49;;;;;;;18.48;8.43;;;;;;;21.89;63.21;101818.63;5015572;28;20363;-40
2022/10/29 10:42:28;;;;;;;19.08;8.40;;;;;;;22.63;60.85;101822.44;5012633;28;20034;-45
2022/10/29 10:45:13;;;;;;;21.98;9.43;;;;;;;22.37;61.52;101836.28;5013833;28;20486;-40
2022/10/29 10:47:42;;;;;;;15.75;8.15;;;;;;;23.06;59.80;101847.22;5013555;28;20540;-41
2022/10/29 10:50:21;;;;;;;20.13;8.57;;;;;;;23.21;59.41;101846.00;4995922;28;20286;-41
2022/10/29 10:52:47;;;;;;;18.48;8.80;;;;;;;23.27;58.98;101840.53;5013197;28;20030;-40
2022/10/29 10:55:24;;;;;;;16.83;8.50;;;;;;;23.72;58.32;101843.91;5013266;28;20037;-39
2022/10/29 10:57:58;;;;;;;19.45;8.55;;;;;;;23.66;57.40;101828.06;5013751;28;20049;-40
2022/10/29 11:00:23;;;;;;;19.92;8.43;;;;;;;23.62;56.85;101815.72;5013031;28;20080;-42
2022/10/29 11:03:12;;;;;;;14.73;8.00;;;;;;;23.46;56.73;101814.34;5013447;28;20026;-39
2022/10/29 11:05:48;;;;;;;14.50;8.20;;;;;;;23.42;57.36;101818.00;4996454;28;20497;-40
2022/10/29 11:08:28;;;;;;;19.48;7.88;;;;;;;23.35;57.44;101809.31;5013674;28;20033;-39
2022/10/29 11:10:57;;;;;;;17.27;7.65;;;;;;;23.56;57.40;101804.38;5012850;28;20032;-37
2022/10/29 11:13:28;;;;;;;16.65;8.00;;;;;;;23.35;57.45;101803.09;5012870;28;20061;-40
2022/10/29 11:16:16;;;;;;;20.08;8.15;;;;;;;23.68;56.85;101796.06;5013054;28;20021;-40
2022/10/29 11:18:55;;;;;;;16.13;7.78;;;;;;;23.90;56.87;101793.72;4998589;28;20050;-40
2022/10/29 11:21:44;;;;;;;16.67;7.53;;;;;;;23.83;56.48;101783.22;5012142;28;20568;-38
2022/10/29 11:24:14;;;;;;;19.42;7.43;;;;;;;24.20;55.94;101784.91;5012401;28;20053;-42
2022/10/29 11:26:48;;;;;;;17.92;7.15;;;;;;;24.15;55.47;101795.63;5012341;28;20030;-41
2022/10/29 11:29:37;;;;;;;16.80;6.78;;;;;;;24.29;54.84;101784.63;5012272;28;20030;-39